Aviation Digital Data Service (ADDS)

Output produced by METARs form (0010 UTC 16 February 2019)
found at http://www.aviationweather.gov/metar/data/
 
METAR text: ETNW 152320Z 11002KT 9999 04/M01 Q1027 BLU+
Conditions at: ETNW (WUNSTORF (GER-AF, DE) observed 2320 UTC 15 February 2019
Temperature: 4.0°C (39°F)
Dewpoint: -1.0°C (30°F) [RH = 70%]
Pressure (altimeter): 30.32 inches Hg (1027.0 mb)
Winds: from the ESE (110 degrees) at 2 MPH (2 knots; 1.0 m/s)
Visibility: 6 or more miles (10+ km)
Ceiling: unknown
Clouds: missing
Weather: no significant weather observed at this time

METAR text: ETNW 152220Z 11002KT 9999 04/M01 Q1027 BLU+
Conditions at: ETNW (WUNSTORF (GER-AF, DE) observed 2220 UTC 15 February 2019
Temperature: 4.0°C (39°F)
Dewpoint: -1.0°C (30°F) [RH = 70%]
Pressure (altimeter): 30.32 inches Hg (1027.0 mb)
Winds: from the ESE (110 degrees) at 2 MPH (2 knots; 1.0 m/s)
Visibility: 6 or more miles (10+ km)
Ceiling: unknown
Clouds: missing
Weather: no significant weather observed at this time

METAR text: ETNW 152120Z 00000KT 9999 06/M00 Q1028 BLU+
Conditions at: ETNW (WUNSTORF (GER-AF, DE) observed 2120 UTC 15 February 2019
Temperature: 6.0°C (43°F)
Dewpoint: 0.0°C (32°F) [RH = 65%]
Pressure (altimeter): 30.35 inches Hg (1028.0 mb)
Winds: calm
Visibility: 6 or more miles (10+ km)
Ceiling: unknown
Clouds: missing
Weather: no significant weather observed at this time

METAR text: ETNW 152020Z 11003KT 9999 06/01 Q1028 BLU+
Conditions at: ETNW (WUNSTORF (GER-AF, DE) observed 2020 UTC 15 February 2019
Temperature: 6.0°C (43°F)
Dewpoint: 1.0°C (34°F) [RH = 70%]
Pressure (altimeter): 30.35 inches Hg (1028.0 mb)
Winds: from the ESE (110 degrees) at 3 MPH (3 knots; 1.5 m/s)
Visibility: 6 or more miles (10+ km)
Ceiling: unknown
Clouds: missing
Weather: no significant weather observed at this time

METAR text: ETNW 151920Z 15003KT 9999 08/01 Q1029 BLU+
Conditions at: ETNW (WUNSTORF (GER-AF, DE) observed 1920 UTC 15 February 2019
Temperature: 8.0°C (46°F)
Dewpoint: 1.0°C (34°F) [RH = 61%]
Pressure (altimeter): 30.38 inches Hg (1029.0 mb)
Winds: from the SSE (150 degrees) at 3 MPH (3 knots; 1.5 m/s)
Visibility: 6 or more miles (10+ km)
Ceiling: unknown
Clouds: missing
Weather: no significant weather observed at this time

METAR text: ETNW 151919Z 15003KT 9999 08/01 Q1029 BLU+
Conditions at: ETNW (WUNSTORF (GER-AF, DE) observed 1919 UTC 15 February 2019
Temperature: 8.0°C (46°F)
Dewpoint: 1.0°C (34°F) [RH = 61%]
Pressure (altimeter): 30.38 inches Hg (1029.0 mb)
Winds: from the SSE (150 degrees) at 3 MPH (3 knots; 1.5 m/s)
Visibility: 6 or more miles (10+ km)
Ceiling: unknown
Clouds: missing
Weather: no significant weather observed at this time

METAR text: ETNW 151820Z 14006KT 9999 08/01 Q1029 BLU+
Conditions at: ETNW (WUNSTORF (GER-AF, DE) observed 1820 UTC 15 February 2019
Temperature: 8.0°C (46°F)
Dewpoint: 1.0°C (34°F) [RH = 61%]
Pressure (altimeter): 30.38 inches Hg (1029.0 mb)
Winds: from the SE (140 degrees) at 7 MPH (6 knots; 3.1 m/s)
Visibility: 6 or more miles (10+ km)
Ceiling: unknown
Clouds: missing
Weather: no significant weather observed at this time

METAR text: ETNW 151720Z 14006KT 9999 FEW300 09/01 Q1029 BLU+
Conditions at: ETNW (WUNSTORF (GER-AF, DE) observed 1720 UTC 15 February 2019
Temperature: 9.0°C (48°F)
Dewpoint: 1.0°C (34°F) [RH = 57%]
Pressure (altimeter): 30.38 inches Hg (1029.0 mb)
Winds: from the SE (140 degrees) at 7 MPH (6 knots; 3.1 m/s)
Visibility: 6 or more miles (10+ km)
Ceiling: at least 12,000 feet AGL
Clouds: few clouds at 30000 feet AGL
Weather: no significant weather observed at this time

METAR text: ETNW 151620Z 14006KT 9999 FEW300 12/01 Q1030 BLU+
Conditions at: ETNW (WUNSTORF (GER-AF, DE) observed 1620 UTC 15 February 2019
Temperature: 12.0°C (54°F)
Dewpoint: 1.0°C (34°F) [RH = 47%]
Pressure (altimeter): 30.41 inches Hg (1030.0 mb)
Winds: from the SE (140 degrees) at 7 MPH (6 knots; 3.1 m/s)
Visibility: 6 or more miles (10+ km)
Ceiling: at least 12,000 feet AGL
Clouds: few clouds at 30000 feet AGL
Weather: no significant weather observed at this time

METAR text: ETNW 151520Z 13006KT 9999 FEW300 14/01 Q1030 BLU+
Conditions at: ETNW (WUNSTORF (GER-AF, DE) observed 1520 UTC 15 February 2019
Temperature: 14.0°C (57°F)
Dewpoint: 1.0°C (34°F) [RH = 41%]
Pressure (altimeter): 30.41 inches Hg (1030.0 mb)
Winds: from the SE (130 degrees) at 7 MPH (6 knots; 3.1 m/s)
Visibility: 6 or more miles (10+ km)
Ceiling: at least 12,000 feet AGL
Clouds: few clouds at 30000 feet AGL
Weather: no significant weather observed at this time

METAR text: ETNW 151420Z 16005KT 9999 FEW300 16/00 Q1031 BLU+
Conditions at: ETNW (WUNSTORF (GER-AF, DE) observed 1420 UTC 15 February 2019
Temperature: 16.0°C (61°F)
Dewpoint: 0.0°C (32°F) [RH = 34%]
Pressure (altimeter): 30.44 inches Hg (1031.0 mb)
Winds: from the SSE (160 degrees) at 6 MPH (5 knots; 2.6 m/s)
Visibility: 6 or more miles (10+ km)
Ceiling: at least 12,000 feet AGL
Clouds: few clouds at 30000 feet AGL
Weather: no significant weather observed at this time

METAR text: ETNW 151320Z 17006KT 9999 FEW300 15/M00 Q1031 BLU+
Conditions at: ETNW (WUNSTORF (GER-AF, DE) observed 1320 UTC 15 February 2019
Temperature: 15.0°C (59°F)
Dewpoint: 0.0°C (32°F) [RH = 36%]
Pressure (altimeter): 30.44 inches Hg (1031.0 mb)
Winds: from the S (170 degrees) at 7 MPH (6 knots; 3.1 m/s)
Visibility: 6 or more miles (10+ km)
Ceiling: at least 12,000 feet AGL
Clouds: few clouds at 30000 feet AGL
Weather: no significant weather observed at this time

METAR text: ETNW 151252Z 17005KT 9999 FEW300 15/00 Q1032 BLU+FCST CANCEL
Conditions at: ETNW (WUNSTORF (GER-AF, DE) observed 1252 UTC 15 February 2019
Temperature: 15.0°C (59°F)
Dewpoint: 0.0°C (32°F) [RH = 36%]
Pressure (altimeter): 30.47 inches Hg (1032.0 mb)
Winds: from the S (170 degrees) at 6 MPH (5 knots; 2.6 m/s)
Visibility: 6 or more miles (10+ km)
Ceiling: at least 12,000 feet AGL
Clouds: few clouds at 30000 feet AGL
Weather: no significant weather observed at this time

METAR text: ETNW 151220Z 15005KT 9999 FEW300 15/01 Q1032 BLU+BLU+
Conditions at: ETNW (WUNSTORF (GER-AF, DE) observed 1220 UTC 15 February 2019
Temperature: 15.0°C (59°F)
Dewpoint: 1.0°C (34°F) [RH = 39%]
Pressure (altimeter): 30.47 inches Hg (1032.0 mb)
Winds: from the SSE (150 degrees) at 6 MPH (5 knots; 2.6 m/s)
Visibility: 6 or more miles (10+ km)
Ceiling: at least 12,000 feet AGL
Clouds: few clouds at 30000 feet AGL
Weather: no significant weather observed at this time

METAR text: ETNW 151120Z 15003KT 9999 FEW300 12/02 Q1033 BLU+BLU+
Conditions at: ETNW (WUNSTORF (GER-AF, DE) observed 1120 UTC 15 February 2019
Temperature: 12.0°C (54°F)
Dewpoint: 2.0°C (36°F) [RH = 50%]
Pressure (altimeter): 30.50 inches Hg (1033.0 mb)
Winds: from the SSE (150 degrees) at 3 MPH (3 knots; 1.5 m/s)
Visibility: 6 or more miles (10+ km)
Ceiling: at least 12,000 feet AGL
Clouds: few clouds at 30000 feet AGL
Weather: no significant weather observed at this time

METAR text: ETNW 151020Z 14005KT 9999 FEW300 09/01 Q1033 BLU+BLU+
Conditions at: ETNW (WUNSTORF (GER-AF, DE) observed 1020 UTC 15 February 2019
Temperature: 9.0°C (48°F)
Dewpoint: 1.0°C (34°F) [RH = 57%]
Pressure (altimeter): 30.50 inches Hg (1033.0 mb)
Winds: from the SE (140 degrees) at 6 MPH (5 knots; 2.6 m/s)
Visibility: 6 or more miles (10+ km)
Ceiling: at least 12,000 feet AGL
Clouds: few clouds at 30000 feet AGL
Weather: no significant weather observed at this time

METAR text: ETNW 150920Z 11003KT 9999 FEW300 06/01 Q1034 BLU+BLU+
Conditions at: ETNW (WUNSTORF (GER-AF, DE) observed 0920 UTC 15 February 2019
Temperature: 6.0°C (43°F)
Dewpoint: 1.0°C (34°F) [RH = 70%]
Pressure (altimeter): 30.53 inches Hg (1034.0 mb)
Winds: from the ESE (110 degrees) at 3 MPH (3 knots; 1.5 m/s)
Visibility: 6 or more miles (10+ km)
Ceiling: at least 12,000 feet AGL
Clouds: few clouds at 30000 feet AGL
Weather: no significant weather observed at this time

METAR text: ETNW 150820Z 18003KT 9999 FEW300 04/M01 Q1033 BLU+BLU+
Conditions at: ETNW (WUNSTORF (GER-AF, DE) observed 0820 UTC 15 February 2019
Temperature: 4.0°C (39°F)
Dewpoint: -1.0°C (30°F) [RH = 70%]
Pressure (altimeter): 30.50 inches Hg (1033.0 mb)
Winds: from the S (180 degrees) at 3 MPH (3 knots; 1.5 m/s)
Visibility: 6 or more miles (10+ km)
Ceiling: at least 12,000 feet AGL
Clouds: few clouds at 30000 feet AGL
Weather: no significant weather observed at this time

METAR text: ETNW 150720Z 17003KT 9999 FEW300 00/M02 Q1034 BLU+BLU+
Conditions at: ETNW (WUNSTORF (GER-AF, DE) observed 0720 UTC 15 February 2019
Temperature: 0.0°C (32°F)
Dewpoint: -2.0°C (28°F) [RH = 86%]
Pressure (altimeter): 30.53 inches Hg (1034.0 mb)
Winds: from the S (170 degrees) at 3 MPH (3 knots; 1.5 m/s)
Visibility: 6 or more miles (10+ km)
Ceiling: at least 12,000 feet AGL
Clouds: few clouds at 30000 feet AGL
Weather: no significant weather observed at this time

METAR text: ETNW 150620Z VRB02KT 9999 M00/M02 Q1033 BLU+BLU+
Conditions at: ETNW (WUNSTORF (GER-AF, DE) observed 0620 UTC 15 February 2019
Temperature: 0.0°C (32°F)
Dewpoint: -2.0°C (28°F) [RH = 86%]
Pressure (altimeter): 30.50 inches Hg (1033.0 mb)
Winds: variable direction winds at 2 MPH (2 knots; 1.0 m/s)
Visibility: 6 or more miles (10+ km)
Ceiling: unknown
Clouds: missing
Weather: no significant weather observed at this time

METAR text: ETNW 150520Z 11002KT 9999 M01/M02 Q1033 BLU+BLU+
Conditions at: ETNW (WUNSTORF (GER-AF, DE) observed 0520 UTC 15 February 2019
Temperature: -1.0°C (30°F)
Dewpoint: -2.0°C (28°F) [RH = 93%]
Pressure (altimeter): 30.50 inches Hg (1033.0 mb)
Winds: from the ESE (110 degrees) at 2 MPH (2 knots; 1.0 m/s)
Visibility: 6 or more miles (10+ km)
Ceiling: unknown
Clouds: missing
Weather: no significant weather observed at this time

METAR text: ETNW 150420Z 09002KT 9999 M01/M03 Q1033 BLU+
Conditions at: ETNW (WUNSTORF (GER-AF, DE) observed 0420 UTC 15 February 2019
Temperature: -1.0°C (30°F)
Dewpoint: -3.0°C (27°F) [RH = 86%]
Pressure (altimeter): 30.50 inches Hg (1033.0 mb)
Winds: from the E (90 degrees) at 2 MPH (2 knots; 1.0 m/s)
Visibility: 6 or more miles (10+ km)
Ceiling: unknown
Clouds: missing
Weather: no significant weather observed at this time

METAR text: ETNW 150320Z 12001KT 9999 FEW250 M00/M02 Q1033 BLU+
Conditions at: ETNW (WUNSTORF (GER-AF, DE) observed 0320 UTC 15 February 2019
Temperature: 0.0°C (32°F)
Dewpoint: -2.0°C (28°F) [RH = 86%]
Pressure (altimeter): 30.50 inches Hg (1033.0 mb)
Winds: from the ESE (120 degrees) at 1 MPH (1 knots; 0.5 m/s)
Visibility: 6 or more miles (10+ km)
Ceiling: at least 12,000 feet AGL
Clouds: few clouds at 25000 feet AGL
Weather: no significant weather observed at this time

METAR text: ETNW 150220Z 17003KT 9999 FEW250 01/M02 Q1034 BLU+
Conditions at: ETNW (WUNSTORF (GER-AF, DE) observed 0220 UTC 15 February 2019
Temperature: 1.0°C (34°F)
Dewpoint: -2.0°C (28°F) [RH = 80%]
Pressure (altimeter): 30.53 inches Hg (1034.0 mb)
Winds: from the S (170 degrees) at 3 MPH (3 knots; 1.5 m/s)
Visibility: 6 or more miles (10+ km)
Ceiling: at least 12,000 feet AGL
Clouds: few clouds at 25000 feet AGL
Weather: no significant weather observed at this time

METAR text: ETNW 150120Z 14002KT 9999 FEW250 01/M02 Q1034 BLU+
Conditions at: ETNW (WUNSTORF (GER-AF, DE) observed 0120 UTC 15 February 2019
Temperature: 1.0°C (34°F)
Dewpoint: -2.0°C (28°F) [RH = 80%]
Pressure (altimeter): 30.53 inches Hg (1034.0 mb)
Winds: from the SE (140 degrees) at 2 MPH (2 knots; 1.0 m/s)
Visibility: 6 or more miles (10+ km)
Ceiling: at least 12,000 feet AGL
Clouds: few clouds at 25000 feet AGL
Weather: no significant weather observed at this time

METAR text: ETNW 150020Z 22003KT 9999 FEW250 02/M02 Q1034 BLU+
Conditions at: ETNW (WUNSTORF (GER-AF, DE) observed 0020 UTC 15 February 2019
Temperature: 2.0°C (36°F)
Dewpoint: -2.0°C (28°F) [RH = 75%]
Pressure (altimeter): 30.53 inches Hg (1034.0 mb)
Winds: from the SW (220 degrees) at 3 MPH (3 knots; 1.5 m/s)
Visibility: 6 or more miles (10+ km)
Ceiling: at least 12,000 feet AGL
Clouds: few clouds at 25000 feet AGL
Weather: no significant weather observed at this time

METAR text: ETNW 142320Z 18002KT 9999 FEW250 02/M01 Q1034 BLU+
Conditions at: ETNW (WUNSTORF (GER-AF, DE) observed 2320 UTC 14 February 2019
Temperature: 2.0°C (36°F)
Dewpoint: -1.0°C (30°F) [RH = 80%]
Pressure (altimeter): 30.53 inches Hg (1034.0 mb)
Winds: from the S (180 degrees) at 2 MPH (2 knots; 1.0 m/s)
Visibility: 6 or more miles (10+ km)
Ceiling: at least 12,000 feet AGL
Clouds: few clouds at 25000 feet AGL
Weather: no significant weather observed at this time

METAR text: ETNW 142220Z 16004KT 9999 FEW250 03/M02 Q1034 BLU+
Conditions at: ETNW (WUNSTORF (GER-AF, DE) observed 2220 UTC 14 February 2019
Temperature: 3.0°C (37°F)
Dewpoint: -2.0°C (28°F) [RH = 70%]
Pressure (altimeter): 30.53 inches Hg (1034.0 mb)
Winds: from the SSE (160 degrees) at 5 MPH (4 knots; 2.1 m/s)
Visibility: 6 or more miles (10+ km)
Ceiling: at least 12,000 feet AGL
Clouds: few clouds at 25000 feet AGL
Weather: no significant weather observed at this time

METAR text: ETNW 142120Z 20003KT 9999 FEW250 03/M02 Q1034 BLU+
Conditions at: ETNW (WUNSTORF (GER-AF, DE) observed 2120 UTC 14 February 2019
Temperature: 3.0°C (37°F)
Dewpoint: -2.0°C (28°F) [RH = 70%]
Pressure (altimeter): 30.53 inches Hg (1034.0 mb)
Winds: from the SSW (200 degrees) at 3 MPH (3 knots; 1.5 m/s)
Visibility: 6 or more miles (10+ km)
Ceiling: at least 12,000 feet AGL
Clouds: few clouds at 25000 feet AGL
Weather: no significant weather observed at this time

METAR text: ETNW 142020Z 23002KT 9999 FEW250 05/M02 Q1034 BLU+
Conditions at: ETNW (WUNSTORF (GER-AF, DE) observed 2020 UTC 14 February 2019
Temperature: 5.0°C (41°F)
Dewpoint: -2.0°C (28°F) [RH = 60%]
Pressure (altimeter): 30.53 inches Hg (1034.0 mb)
Winds: from the SW (230 degrees) at 2 MPH (2 knots; 1.0 m/s)
Visibility: 6 or more miles (10+ km)
Ceiling: at least 12,000 feet AGL
Clouds: few clouds at 25000 feet AGL
Weather: no significant weather observed at this time

METAR text: ETNW 141920Z 22005KT 9999 FEW250 06/M01 Q1034 BLU+
Conditions at: ETNW (WUNSTORF (GER-AF, DE) observed 1920 UTC 14 February 2019
Temperature: 6.0°C (43°F)
Dewpoint: -1.0°C (30°F) [RH = 61%]
Pressure (altimeter): 30.53 inches Hg (1034.0 mb)
Winds: from the SW (220 degrees) at 6 MPH (5 knots; 2.6 m/s)
Visibility: 6 or more miles (10+ km)
Ceiling: at least 12,000 feet AGL
Clouds: few clouds at 25000 feet AGL
Weather: no significant weather observed at this time

METAR text: ETNW 141820Z 21002KT 9999 FEW200 06/M02 Q1035 BLU+
Conditions at: ETNW (WUNSTORF (GER-AF, DE) observed 1820 UTC 14 February 2019
Temperature: 6.0°C (43°F)
Dewpoint: -2.0°C (28°F) [RH = 56%]
Pressure (altimeter): 30.56 inches Hg (1035.0 mb)
Winds: from the SSW (210 degrees) at 2 MPH (2 knots; 1.0 m/s)
Visibility: 6 or more miles (10+ km)
Ceiling: at least 12,000 feet AGL
Clouds: few clouds at 20000 feet AGL
Weather: no significant weather observed at this time

METAR text: ETNW 141720Z 23002KT 9999 FEW200 07/M01 Q1035 BLU+
Conditions at: ETNW (WUNSTORF (GER-AF, DE) observed 1720 UTC 14 February 2019
Temperature: 7.0°C (45°F)
Dewpoint: -1.0°C (30°F) [RH = 57%]
Pressure (altimeter): 30.56 inches Hg (1035.0 mb)
Winds: from the SW (230 degrees) at 2 MPH (2 knots; 1.0 m/s)
Visibility: 6 or more miles (10+ km)
Ceiling: at least 12,000 feet AGL
Clouds: few clouds at 20000 feet AGL
Weather: no significant weather observed at this time

METAR text: ETNW 141620Z 24002KT 9999 FEW160 10/M02 Q1034 BLU+FCST CANCEL
Conditions at: ETNW (WUNSTORF (GER-AF, DE) observed 1620 UTC 14 February 2019
Temperature: 10.0°C (50°F)
Dewpoint: -2.0°C (28°F) [RH = 43%]
Pressure (altimeter): 30.53 inches Hg (1034.0 mb)
Winds: from the WSW (240 degrees) at 2 MPH (2 knots; 1.0 m/s)
Visibility: 6 or more miles (10+ km)
Ceiling: at least 12,000 feet AGL
Clouds: few clouds at 16000 feet AGL
Weather: no significant weather observed at this time

METAR text: ETNW 141520Z 26006KT 9999 FEW160 11/M02 Q1034 BLU+BLU+
Conditions at: ETNW (WUNSTORF (GER-AF, DE) observed 1520 UTC 14 February 2019
Temperature: 11.0°C (52°F)
Dewpoint: -2.0°C (28°F) [RH = 40%]
Pressure (altimeter): 30.53 inches Hg (1034.0 mb)
Winds: from the W (260 degrees) at 7 MPH (6 knots; 3.1 m/s)
Visibility: 6 or more miles (10+ km)
Ceiling: at least 12,000 feet AGL
Clouds: few clouds at 16000 feet AGL
Weather: no significant weather observed at this time

METAR text: ETNW 141420Z 26006KT 9999 FEW160 12/M02 Q1035 BLU+BLU+
Conditions at: ETNW (WUNSTORF (GER-AF, DE) observed 1420 UTC 14 February 2019
Temperature: 12.0°C (54°F)
Dewpoint: -2.0°C (28°F) [RH = 38%]
Pressure (altimeter): 30.56 inches Hg (1035.0 mb)
Winds: from the W (260 degrees) at 7 MPH (6 knots; 3.1 m/s)
Visibility: 6 or more miles (10+ km)
Ceiling: at least 12,000 feet AGL
Clouds: few clouds at 16000 feet AGL
Weather: no significant weather observed at this time

METAR text: ETNW 141320Z 25009KT 9999 FEW160 11/00 Q1035 BLU+BLU+
Conditions at: ETNW (WUNSTORF (GER-AF, DE) observed 1320 UTC 14 February 2019
Temperature: 11.0°C (52°F)
Dewpoint: 0.0°C (32°F) [RH = 47%]
Pressure (altimeter): 30.56 inches Hg (1035.0 mb)
Winds: from the WSW (250 degrees) at 10 MPH (9 knots; 4.6 m/s)
Visibility: 6 or more miles (10+ km)
Ceiling: at least 12,000 feet AGL
Clouds: few clouds at 16000 feet AGL
Weather: no significant weather observed at this time

METAR text: ETNW 141220Z 26009KT 9999 FEW160 10/M01 Q1035 BLU+BLU+
Conditions at: ETNW (WUNSTORF (GER-AF, DE) observed 1220 UTC 14 February 2019
Temperature: 10.0°C (50°F)
Dewpoint: -1.0°C (30°F) [RH = 46%]
Pressure (altimeter): 30.56 inches Hg (1035.0 mb)
Winds: from the W (260 degrees) at 10 MPH (9 knots; 4.6 m/s)
Visibility: 6 or more miles (10+ km)
Ceiling: at least 12,000 feet AGL
Clouds: few clouds at 16000 feet AGL
Weather: no significant weather observed at this time

Forecast for: ETNW (WUNSTORF (GER-AF, DE)
Text: TAF ETNW 152300Z 1600/1624 18005KT 9999 NSW SCT150 BY ETGL
Forecast period: 0000 UTC 16 February 2019 to 0000 UTC 17 February 2019
Forecast type: FROM: standard forecast or significant change
Winds: from the S (180 degrees) at 6 MPH (5 knots; 2.6 m/s)
Visibility: 6 or more miles 10+ km)
Ceiling: at least 12,000 feet AGL
Clouds: scattered clouds at 15000 feet AGL
Weather: NSW  (no significant weather)